Portada
METAR-TAF:

METAR-TAF

Aeroports :

Àqaba, Jordània

latitud: 29-38N, longitud: 035-01E, altitud: 53 m

Observació

L'informe es va fer fa 22 minuts, a les 08:00 UTC
Vent 8 kt del Nord
Temperatura 33°C
Humitat 39%
Pressió 1004 hPa
Visibilitat 10 km o més
sense núvols per sota de 1500 mi sense presència de cumulonimbus.

METAR: OJAQ 190800Z 35008KT CAVOK 33/17 Q1004 NOSIG

Hora: 11:22 (08:22 UTC)

Pronòstic

L'informe es va fer fa 4 hores i 0 minuts, a les 04:22 UTC
Pronòstic vàlid del 19 a les 06 UTC al 20 a les 12 UTC
Vent 14 kt del Nord
Visibilitat: 6000 m

TAF: OJAQ 190422Z 1906/2012 36014KT 6000 NSC

Observacions i pronòstics meteorològics de més de 4000 aeroports (METAR i TAF).

Les estacions disponibles són els punts grocs i vermells al mapa.

Posi el ratolí al punt desitjat per veure el nom de l'estació.

Feu clic per veure les observacions i els pronòstics meteorològics.

Per canviar el mapa: feu clic els botons verds amb una creu de color negre per apropar; al botó verd amb un guió per allunyar la imatge; o en les fletxes verdes per a mapes adjacents.


METAR-TAF: